Pagrindinis puslapis
METAR-TAF:

METAR-TAF

Oro uostai :

Boscombe Down, Anglija

platuma: 51-10N, ilguma: 001-45W, Aukštis: 124 m

Dabartinis oras

Ataskaita buvo paskelbta 40 minutes, ne 19:50 UTC
Vėjas 4 kt iš Vakarų/Šiaurės Vakarų
Temperatūra 1°C
Drėgmė 93%
Slėgis 1045 hPa
Matomumas 10 km arba daugiau

METAR: EGDM 201950Z AUTO 30004KT 9999 NCD 01/00 Q1045

Laikas: 20:30 (20:30 UTC)

Prognozė

Ataskaita buvo paskelbta 6 valandos ir 39 minutes, ne 13:51 UTC
Prognozė galioja nuo 20 metu 15 UTC su 20 metu 19 UTC
Vėjas 4 kt iš Vakarų/Šiaurės Vakarų
Matomumas 10 km arba daugiau
nėra debesų žemiau 1500 m ir nėra kamuolinių lietaus debesų
Tikimybė 40%
nuo 20 metu 18 UTC su 20 metu 19 UTC
Matomumas: 5000 m
rūkana

TAF: EGDM 201351Z 2015/2019 30004KT CAVOK PROB40 2018/2019 5000 BR

Orai ataskaitas ir orų prognozės (METAR, TAF).

turimą stotys yra geltonos ir raudonos taškus žemėlapyje.

Perkelti pele per norėdami pamatyti stoties vardą.

Tada spustelėkite, norėdami matyti oro stebėjimo ir prognozės.

Norėdami pakeisti žemėlapį: spustelėkite ant žalios mygtukų su juodo kryžiaus žemyn,; žalią mygtuką su brūkšneliu, jei norite nutolinti; arba žalių rodyklių gretimoms žemėlapius.


METAR-TAF: